createdAt,value
2018-12-25T00:00:37.280Z,2.20
2018-12-25T00:03:20.739Z,2.20
2018-12-25T00:06:03.543Z,2.20
2018-12-25T00:08:46.086Z,2.10
2018-12-25T00:11:28.610Z,2.10
2018-12-25T00:14:12.022Z,2.20
2018-12-25T00:16:54.641Z,2.20
2018-12-25T00:19:37.397Z,2.20
2018-12-25T00:22:19.903Z,2.20
2018-12-25T00:25:03.336Z,2.20
2018-12-25T00:27:45.950Z,2.30
2018-12-25T00:30:28.469Z,2.30
2018-12-25T00:33:11.216Z,2.30
2018-12-25T00:35:54.143Z,2.30
2018-12-25T00:38:36.809Z,2.30
2018-12-25T00:41:19.631Z,2.30
2018-12-25T00:44:02.978Z,2.30
2018-12-25T00:46:45.813Z,2.30
2018-12-25T00:49:28.296Z,2.50
2018-12-25T00:52:11.876Z,2.50
2018-12-25T00:54:55.278Z,2.50
2018-12-25T00:57:39.927Z,2.50
2018-12-25T01:00:22.606Z,2.50
2018-12-25T01:03:05.120Z,2.50
2018-12-25T01:05:47.816Z,2.60
2018-12-25T01:08:30.503Z,2.60
2018-12-25T01:11:13.225Z,2.60
2018-12-25T01:13:56.630Z,2.70
2018-12-25T01:16:39.239Z,2.70
2018-12-25T01:19:23.378Z,2.70
2018-12-25T01:22:07.132Z,2.70
2018-12-25T01:24:50.507Z,2.70
2018-12-25T01:27:33.111Z,2.60
2018-12-25T01:30:16.626Z,2.70
2018-12-25T01:32:59.190Z,2.70
2018-12-25T01:35:42.738Z,2.60
2018-12-25T01:38:25.440Z,2.60
2018-12-25T01:41:08.193Z,2.60
2018-12-25T01:43:50.714Z,2.60
2018-12-25T01:46:33.412Z,2.60
2018-12-25T01:49:15.923Z,2.60
2018-12-25T01:51:58.586Z,2.60
2018-12-25T01:54:41.892Z,2.60
2018-12-25T01:57:23.658Z,2.60
2018-12-25T02:00:06.751Z,2.60
2018-12-25T02:02:51.081Z,2.60
2018-12-25T02:05:34.564Z,2.60
2018-12-25T02:08:17.150Z,2.50
2018-12-25T02:11:01.985Z,2.50
2018-12-25T02:13:45.914Z,2.50
2018-12-25T02:16:28.554Z,2.50
2018-12-25T02:19:11.231Z,2.50
2018-12-25T02:21:53.943Z,2.50
2018-12-25T02:24:38.270Z,2.50
2018-12-25T02:27:21.745Z,2.50
2018-12-25T02:30:05.263Z,2.50
2018-12-25T02:32:47.883Z,2.50
2018-12-25T02:35:30.498Z,2.50
2018-12-25T02:38:13.841Z,2.50
2018-12-25T02:40:57.010Z,2.50
2018-12-25T02:43:39.712Z,2.50
2018-12-25T02:46:22.979Z,2.50
2018-12-25T02:49:06.435Z,2.50
2018-12-25T02:51:49.227Z,2.50
2018-12-25T02:54:31.892Z,2.60
2018-12-25T02:57:14.705Z,2.50
2018-12-25T02:59:57.382Z,2.50
2018-12-25T03:02:40.858Z,2.50
2018-12-25T03:05:23.413Z,2.50
2018-12-25T03:08:06.835Z,2.50
2018-12-25T03:10:50.078Z,2.50
2018-12-25T03:13:33.474Z,2.40
2018-12-25T03:16:16.203Z,2.50
2018-12-25T03:18:59.679Z,2.40
2018-12-25T03:21:42.343Z,2.40
2018-12-25T03:24:25.677Z,2.50
2018-12-25T03:27:08.993Z,2.50
2018-12-25T03:29:52.191Z,2.50
2018-12-25T03:32:35.769Z,2.40
2018-12-25T03:35:19.092Z,2.50
2018-12-25T03:38:02.509Z,2.50
2018-12-25T03:40:45.292Z,2.50
2018-12-25T03:43:29.741Z,2.50
2018-12-25T03:46:12.359Z,2.40
2018-12-25T03:48:55.885Z,2.40
2018-12-25T03:51:38.402Z,2.40
2018-12-25T03:54:20.856Z,2.40
2018-12-25T03:57:04.312Z,2.40
2018-12-25T03:59:47.827Z,2.40
2018-12-25T04:02:31.035Z,2.40
2018-12-25T04:05:14.070Z,2.40
2018-12-25T04:07:58.374Z,2.40
2018-12-25T04:10:41.820Z,2.30
2018-12-25T04:13:24.656Z,2.40
2018-12-25T04:16:07.184Z,2.30
2018-12-25T04:18:49.940Z,2.30
2018-12-25T04:21:33.382Z,2.30
2018-12-25T04:24:16.796Z,2.30
2018-12-25T04:27:00.098Z,2.30
2018-12-25T04:29:42.831Z,2.30
2018-12-25T04:32:25.405Z,2.30
2018-12-25T04:35:08.279Z,2.30
2018-12-25T04:37:51.742Z,2.30
2018-12-25T04:40:34.279Z,2.40
2018-12-25T04:43:17.035Z,2.40
2018-12-25T04:46:00.432Z,2.40
2018-12-25T04:48:43.211Z,2.40
2018-12-25T04:51:25.773Z,2.40
2018-12-25T04:54:08.433Z,2.40
2018-12-25T04:56:51.167Z,2.40
2018-12-25T04:59:33.739Z,2.40
2018-12-25T05:02:16.417Z,2.40
2018-12-25T05:04:59.130Z,2.40
2018-12-25T05:07:41.688Z,2.40
2018-12-25T05:10:24.363Z,2.40
2018-12-25T05:13:07.899Z,2.40
2018-12-25T05:15:50.542Z,2.40
2018-12-25T05:18:33.853Z,2.40
2018-12-25T05:21:16.420Z,2.50
2018-12-25T05:23:58.974Z,2.40
2018-12-25T05:26:41.739Z,2.50
2018-12-25T05:29:24.444Z,2.50
2018-12-25T05:32:06.934Z,2.50
2018-12-25T05:34:49.509Z,2.50
2018-12-25T05:37:33.142Z,2.50
2018-12-25T05:40:16.678Z,2.50
2018-12-25T05:42:59.138Z,2.60
2018-12-25T05:45:42.436Z,2.50
2018-12-25T05:48:25.664Z,2.50
2018-12-25T05:51:08.178Z,2.40
2018-12-25T05:53:50.755Z,2.40
2018-12-25T05:56:33.335Z,2.40
2018-12-25T05:59:15.877Z,2.30
2018-12-25T06:01:58.595Z,2.40
2018-12-25T06:04:41.144Z,2.30
2018-12-25T06:07:23.725Z,2.30
2018-12-25T06:10:06.349Z,2.40
2018-12-25T06:12:49.012Z,2.40
2018-12-25T06:15:32.503Z,2.40
2018-12-25T06:18:15.018Z,2.40
2018-12-25T06:20:57.687Z,2.40
2018-12-25T06:23:41.119Z,2.40
2018-12-25T06:26:24.549Z,2.40
2018-12-25T06:29:07.107Z,2.40
2018-12-25T06:31:50.558Z,2.40
2018-12-25T06:34:34.897Z,2.40
2018-12-25T06:37:18.479Z,2.40
2018-12-25T06:40:01.296Z,2.50
2018-12-25T06:42:44.302Z,2.40
2018-12-25T06:45:27.769Z,2.40
2018-12-25T06:48:11.415Z,2.40
2018-12-25T06:50:54.182Z,2.40
2018-12-25T06:53:37.606Z,2.40
2018-12-25T06:56:20.276Z,2.40
2018-12-25T06:59:03.598Z,2.40
2018-12-25T07:01:46.291Z,2.50
2018-12-25T07:04:29.107Z,2.50
2018-12-25T07:07:11.892Z,2.40
2018-12-25T07:09:54.460Z,2.50
2018-12-25T07:12:37.061Z,2.40
2018-12-25T07:15:19.698Z,2.50
2018-12-25T07:18:02.213Z,2.50
2018-12-25T07:20:44.848Z,2.50
2018-12-25T07:23:27.394Z,2.50
2018-12-25T07:26:11.833Z,2.50
2018-12-25T07:28:55.220Z,2.60
2018-12-25T07:31:38.672Z,2.60
2018-12-25T07:34:21.562Z,2.60
2018-12-25T07:37:04.106Z,2.60
2018-12-25T07:39:46.795Z,2.60
2018-12-25T07:42:30.174Z,2.60
2018-12-25T07:45:12.702Z,2.70
2018-12-25T07:47:55.247Z,2.70
2018-12-25T07:50:38.260Z,2.80
2018-12-25T07:53:20.867Z,2.80
2018-12-25T07:56:03.532Z,2.90
2018-12-25T07:58:46.128Z,2.90
2018-12-25T08:01:29.424Z,2.90
2018-12-25T08:04:12.422Z,3.00
2018-12-25T08:06:54.766Z,3.00
2018-12-25T08:09:37.350Z,3.00
2018-12-25T08:12:20.811Z,3.10
2018-12-25T08:15:03.444Z,3.10
2018-12-25T08:17:46.030Z,3.10
2018-12-25T08:20:29.476Z,3.20
2018-12-25T08:23:12.711Z,3.30
2018-12-25T08:25:55.241Z,3.30
2018-12-25T08:28:37.958Z,3.30
2018-12-25T08:31:21.279Z,3.30
2018-12-25T08:34:03.935Z,3.40
2018-12-25T08:36:46.657Z,3.40
2018-12-25T08:39:28.237Z,3.40
2018-12-25T08:42:18.626Z,3.50
2018-12-25T08:45:01.896Z,3.60
2018-12-25T08:47:44.525Z,3.70
2018-12-25T08:50:28.924Z,3.80
2018-12-25T08:53:10.606Z,3.80
2018-12-25T08:55:53.863Z,3.90
2018-12-25T08:58:37.529Z,3.90
2018-12-25T09:01:20.202Z,3.80
2018-12-25T09:04:02.862Z,3.80
2018-12-25T09:06:45.938Z,3.80
2018-12-25T09:09:28.651Z,3.80
2018-12-25T09:12:11.145Z,3.80
2018-12-25T09:14:53.650Z,3.80
2018-12-25T09:17:36.199Z,3.90
2018-12-25T09:20:18.771Z,4.00
2018-12-25T09:23:02.200Z,4.10
2018-12-25T09:25:44.831Z,4.20
2018-12-25T09:28:28.294Z,4.20
2018-12-25T09:31:10.950Z,4.30
2018-12-25T09:33:53.755Z,4.40
2018-12-25T09:36:36.256Z,4.50
2018-12-25T09:39:19.687Z,4.50
2018-12-25T09:42:02.477Z,4.60
2018-12-25T09:44:45.331Z,4.60
2018-12-25T09:47:27.908Z,4.70
2018-12-25T09:50:11.326Z,4.80
2018-12-25T09:52:53.827Z,4.90
2018-12-25T09:55:36.463Z,5.10
2018-12-25T09:58:19.006Z,5.30
2018-12-25T10:01:02.088Z,5.50
2018-12-25T10:03:44.863Z,5.60
2018-12-25T10:06:28.611Z,5.60
2018-12-25T10:09:11.185Z,5.60
2018-12-25T10:11:54.566Z,5.60
2018-12-25T10:14:37.162Z,5.60
2018-12-25T10:17:20.601Z,5.60
2018-12-25T10:20:03.762Z,5.50
2018-12-25T10:22:47.235Z,5.60
2018-12-25T10:25:30.087Z,5.60
2018-12-25T10:28:13.303Z,5.70
2018-12-25T10:30:55.998Z,5.70
2018-12-25T10:33:38.731Z,5.70
2018-12-25T10:36:21.849Z,5.70
2018-12-25T10:39:05.341Z,5.70
2018-12-25T10:41:48.024Z,5.70
2018-12-25T10:44:30.751Z,5.70
2018-12-25T10:47:13.450Z,5.70
2018-12-25T10:49:56.100Z,5.60
2018-12-25T10:52:38.676Z,5.50
2018-12-25T10:55:21.286Z,5.40
2018-12-25T10:58:04.664Z,5.40
2018-12-25T11:00:48.152Z,5.40
2018-12-25T11:03:31.703Z,5.50
2018-12-25T11:06:14.321Z,5.50
2018-12-25T11:08:57.030Z,5.60
2018-12-25T11:11:40.526Z,5.60
2018-12-25T11:14:24.015Z,5.70
2018-12-25T11:17:07.330Z,5.70
2018-12-25T11:19:50.000Z,5.70
2018-12-25T11:22:32.579Z,5.70
2018-12-25T11:25:15.197Z,5.70
2018-12-25T11:27:58.765Z,5.80
2018-12-25T11:30:41.814Z,5.80
2018-12-25T11:33:25.044Z,5.80
2018-12-25T11:36:07.581Z,5.80
2018-12-25T11:38:51.036Z,5.70
2018-12-25T11:41:34.252Z,5.50
2018-12-25T11:44:16.724Z,5.40
2018-12-25T11:46:59.357Z,5.30
2018-12-25T11:49:45.218Z,5.30
2018-12-25T11:52:28.804Z,5.30
2018-12-25T11:55:12.542Z,5.30
2018-12-25T11:57:55.023Z,5.30
2018-12-25T12:00:38.518Z,5.30
2018-12-25T12:03:21.912Z,5.30
2018-12-25T12:06:04.533Z,5.40
2018-12-25T12:08:47.194Z,5.40
2018-12-25T12:11:29.923Z,5.50
2018-12-25T12:14:12.538Z,5.40
2018-12-25T12:16:55.046Z,5.40
2018-12-25T12:19:38.097Z,5.40
2018-12-25T12:22:20.666Z,5.40
2018-12-25T12:25:03.200Z,5.40
2018-12-25T12:27:46.355Z,5.40
2018-12-25T12:30:29.779Z,5.40
2018-12-25T12:33:12.449Z,5.40
2018-12-25T12:35:55.824Z,5.50
2018-12-25T12:38:39.328Z,5.60
2018-12-25T12:41:21.874Z,5.70
2018-12-25T12:44:04.448Z,5.70
2018-12-25T12:46:47.060Z,5.70
2018-12-25T12:49:31.295Z,5.70
2018-12-25T12:52:14.189Z,5.70
2018-12-25T12:54:56.878Z,5.70
2018-12-25T12:57:39.528Z,5.70
2018-12-25T13:00:22.801Z,5.70
2018-12-25T13:03:06.096Z,5.70
2018-12-25T13:05:49.554Z,5.70
2018-12-25T13:08:32.898Z,5.60
2018-12-25T13:11:15.498Z,5.50
2018-12-25T13:13:59.147Z,5.50
2018-12-25T13:16:41.716Z,5.40
2018-12-25T13:19:25.178Z,5.40
2018-12-25T13:22:07.982Z,5.30
2018-12-25T13:24:50.496Z,5.20
2018-12-25T13:27:33.281Z,5.20
2018-12-25T13:30:16.714Z,5.20
2018-12-25T13:32:59.698Z,5.10
2018-12-25T13:35:43.090Z,5.10
2018-12-25T13:38:26.486Z,5.10
2018-12-25T13:41:09.838Z,5.10
2018-12-25T13:43:52.601Z,5.10
2018-12-25T13:46:35.741Z,5.10
2018-12-25T13:49:18.402Z,5.10
2018-12-25T13:52:01.028Z,5.10
2018-12-25T13:54:43.602Z,5.10
2018-12-25T13:57:26.770Z,5.00
2018-12-25T14:00:10.207Z,5.00
2018-12-25T14:02:53.044Z,5.00
2018-12-25T14:05:35.630Z,5.00
2018-12-25T14:08:19.158Z,5.10
2018-12-25T14:11:01.665Z,5.10
2018-12-25T14:13:44.361Z,5.10
2018-12-25T14:16:26.802Z,5.10
2018-12-25T14:19:10.193Z,5.10
2018-12-25T14:21:52.934Z,5.00
2018-12-25T14:24:37.255Z,5.00
2018-12-25T14:27:20.683Z,5.00
2018-12-25T14:30:03.318Z,4.90
2018-12-25T14:32:46.874Z,4.90
2018-12-25T14:35:31.266Z,4.90
2018-12-25T14:38:13.893Z,4.80
2018-12-25T14:40:56.485Z,4.80
2018-12-25T14:43:38.955Z,4.70
2018-12-25T14:46:23.347Z,4.70
2018-12-25T14:49:06.323Z,4.70
2018-12-25T14:51:48.876Z,4.60
2018-12-25T14:54:31.405Z,4.60
2018-12-25T14:57:13.950Z,4.60
2018-12-25T14:59:56.683Z,4.50
2018-12-25T15:02:39.693Z,4.60
2018-12-25T15:05:21.278Z,4.50
2018-12-25T15:08:04.443Z,4.50
2018-12-25T15:10:47.325Z,4.50
2018-12-25T15:13:30.646Z,4.50
2018-12-25T15:16:13.190Z,4.50
2018-12-25T15:18:55.925Z,4.40
2018-12-25T15:21:39.225Z,4.40
2018-12-25T15:24:22.578Z,4.40
2018-12-25T15:27:05.716Z,4.30
2018-12-25T15:29:48.272Z,4.30
2018-12-25T15:32:30.798Z,4.30
2018-12-25T15:35:14.319Z,4.30
2018-12-25T15:37:57.230Z,4.20
2018-12-25T15:40:39.882Z,4.20
2018-12-25T15:43:22.514Z,4.20
2018-12-25T15:46:05.477Z,4.20
2018-12-25T15:48:48.064Z,4.20
2018-12-25T15:51:31.343Z,4.10
2018-12-25T15:54:14.664Z,4.10
2018-12-25T15:56:58.322Z,4.00
2018-12-25T15:59:40.861Z,4.00
2018-12-25T16:02:23.417Z,3.90
2018-12-25T16:05:06.155Z,3.90
2018-12-25T16:07:48.750Z,3.90
2018-12-25T16:10:31.338Z,3.90
2018-12-25T16:13:13.888Z,3.90
2018-12-25T16:15:56.464Z,3.90
2018-12-25T16:18:39.059Z,3.90
2018-12-25T16:21:21.583Z,4.00
2018-12-25T16:24:04.221Z,4.00
2018-12-25T16:26:47.086Z,4.00
2018-12-25T16:29:30.662Z,4.00
2018-12-25T16:32:13.280Z,4.00
2018-12-25T16:34:56.030Z,4.00
2018-12-25T16:37:39.427Z,4.00
2018-12-25T16:40:22.005Z,4.00
2018-12-25T16:43:04.581Z,4.00
2018-12-25T16:45:47.078Z,4.00
2018-12-25T16:48:30.049Z,4.00
2018-12-25T16:51:12.704Z,4.10
2018-12-25T16:53:55.527Z,4.10
2018-12-25T16:56:38.123Z,4.10
2018-12-25T16:59:20.783Z,4.10
2018-12-25T17:02:03.542Z,4.10
2018-12-25T17:04:46.146Z,4.10
2018-12-25T17:07:29.545Z,4.00
2018-12-25T17:10:12.197Z,4.00
2018-12-25T17:12:56.290Z,4.00
2018-12-25T17:15:39.338Z,4.00
2018-12-25T17:18:22.567Z,4.00
2018-12-25T17:21:06.011Z,4.00
2018-12-25T17:23:48.670Z,4.00
2018-12-25T17:26:31.462Z,3.90
2018-12-25T17:29:13.973Z,3.90
2018-12-25T17:31:58.393Z,3.80
2018-12-25T17:34:41.799Z,3.80
2018-12-25T17:37:25.227Z,3.80
2018-12-25T17:40:06.974Z,3.70
2018-12-25T17:42:52.783Z,3.70
2018-12-25T17:45:35.962Z,3.80
2018-12-25T17:48:19.427Z,3.80
2018-12-25T17:51:01.993Z,3.80
2018-12-25T17:53:44.834Z,3.70
2018-12-25T17:56:28.316Z,3.70
2018-12-25T17:59:11.803Z,3.70
2018-12-25T18:01:54.330Z,3.70
2018-12-25T18:04:37.760Z,3.60
2018-12-25T18:07:20.548Z,3.60
2018-12-25T18:10:04.043Z,3.60
2018-12-25T18:12:46.669Z,3.50
2018-12-25T18:15:29.240Z,3.50
2018-12-25T18:18:11.986Z,3.40
2018-12-25T18:20:54.624Z,3.30
2018-12-25T18:23:38.143Z,3.10
2018-12-25T18:26:20.804Z,3.00
2018-12-25T18:29:03.393Z,2.90
2018-12-25T18:31:45.880Z,2.80
2018-12-25T18:34:28.521Z,2.70
2018-12-25T18:37:11.170Z,2.60
2018-12-25T18:39:53.701Z,2.60
2018-12-25T18:42:39.383Z,2.60
2018-12-25T18:45:21.928Z,2.60
2018-12-25T18:48:04.530Z,2.50
2018-12-25T18:50:47.830Z,2.60
2018-12-25T18:53:31.127Z,2.60
2018-12-25T18:56:13.728Z,2.60
2018-12-25T18:58:57.571Z,2.60
2018-12-25T19:01:40.638Z,2.50
2018-12-25T19:04:23.646Z,2.60
2018-12-25T19:07:06.947Z,2.50
2018-12-25T19:09:50.371Z,2.40
2018-12-25T19:12:32.977Z,2.30
2018-12-25T19:15:16.683Z,2.20
2018-12-25T19:17:59.385Z,2.10
2018-12-25T19:20:42.677Z,2.10
2018-12-25T19:23:26.183Z,2.00
2018-12-25T19:26:08.811Z,1.90
2018-12-25T19:28:52.301Z,1.90
2018-12-25T19:31:34.755Z,1.80
2018-12-25T19:34:17.579Z,1.60
2018-12-25T19:36:59.107Z,1.60
2018-12-25T19:39:41.698Z,1.60
2018-12-25T19:42:25.298Z,1.60
2018-12-25T19:45:08.917Z,1.60
2018-12-25T19:47:51.511Z,1.60
2018-12-25T19:50:34.707Z,1.60
2018-12-25T19:53:17.406Z,1.70
2018-12-25T19:56:01.938Z,1.70
2018-12-25T19:58:45.033Z,1.60
2018-12-25T20:01:27.539Z,1.60
2018-12-25T20:04:10.205Z,1.50
2018-12-25T20:06:52.779Z,1.50
2018-12-25T20:09:35.459Z,1.40
2018-12-25T20:12:19.637Z,1.30
2018-12-25T20:15:02.235Z,1.30
2018-12-25T20:17:44.811Z,1.30
2018-12-25T20:20:27.523Z,1.20
2018-12-25T20:23:10.794Z,1.20
2018-12-25T20:25:53.358Z,1.20
2018-12-25T20:28:36.565Z,1.10
2018-12-25T20:31:19.155Z,1.10
2018-12-25T20:34:01.621Z,0.90
2018-12-25T20:36:44.340Z,0.80
2018-12-25T20:39:26.916Z,0.80
2018-12-25T20:42:09.934Z,0.80
2018-12-25T20:44:52.788Z,0.80
2018-12-25T20:47:35.993Z,0.80
2018-12-25T20:50:19.323Z,0.80
2018-12-25T20:53:01.898Z,0.70
2018-12-25T20:55:44.474Z,0.70
2018-12-25T20:58:27.073Z,0.70
2018-12-25T21:01:09.823Z,0.80
2018-12-25T21:03:53.334Z,0.80
2018-12-25T21:06:36.812Z,0.70
2018-12-25T21:09:19.683Z,0.80
2018-12-25T21:12:02.475Z,0.80
2018-12-25T21:14:45.238Z,0.80
2018-12-25T21:17:28.565Z,0.90
2018-12-25T21:20:11.994Z,0.90
2018-12-25T21:22:54.546Z,1.10
2018-12-25T21:25:37.254Z,1.10
2018-12-25T21:28:19.853Z,1.30
2018-12-25T21:34:14.099Z,1.50
2018-12-25T21:36:57.109Z,1.60
2018-12-25T21:39:39.723Z,1.50
2018-12-25T21:42:23.173Z,1.60
2018-12-25T21:45:05.937Z,1.60
2018-12-25T21:47:48.596Z,1.70
2018-12-25T21:50:32.073Z,1.70
2018-12-25T21:53:16.543Z,1.70
2018-12-25T21:55:58.182Z,1.80
2018-12-25T21:58:41.545Z,1.80
2018-12-25T22:01:24.218Z,1.80
2018-12-25T22:04:07.600Z,1.90
2018-12-25T22:06:50.139Z,1.90
2018-12-25T22:09:32.981Z,1.90
2018-12-25T22:12:16.616Z,2.00
2018-12-25T22:15:00.549Z,1.90
2018-12-25T22:17:43.928Z,1.90
2018-12-25T22:20:35.244Z,1.90
2018-12-25T22:23:18.757Z,1.80
2018-12-25T22:26:02.707Z,1.90
2018-12-25T22:28:46.247Z,1.90
2018-12-25T22:31:28.866Z,1.90
2018-12-25T22:34:12.226Z,1.90
2018-12-25T22:36:55.731Z,1.90
2018-12-25T22:39:39.090Z,2.00
2018-12-25T22:42:22.584Z,2.20
2018-12-25T22:45:05.182Z,2.20
2018-12-25T22:47:48.454Z,2.20
2018-12-25T22:50:31.203Z,2.20
2018-12-25T22:53:14.455Z,2.20
2018-12-25T22:55:57.101Z,2.20
2018-12-25T22:58:39.668Z,2.30
2018-12-25T23:01:22.452Z,2.30
2018-12-25T23:04:05.734Z,2.30
2018-12-25T23:06:48.321Z,2.30
2018-12-25T23:09:32.625Z,2.40
2018-12-25T23:12:16.021Z,2.30
2018-12-25T23:14:58.694Z,2.30
2018-12-25T23:17:41.324Z,2.30
2018-12-25T23:20:28.593Z,2.20
2018-12-25T23:23:08.995Z,2.20
2018-12-25T23:25:52.632Z,2.20
2018-12-25T23:28:36.187Z,2.20
2018-12-25T23:31:18.824Z,2.10
2018-12-25T23:34:01.667Z,2.10
2018-12-25T23:36:44.332Z,2.10
2018-12-25T23:39:26.982Z,2.10
2018-12-25T23:42:09.457Z,2.20
2018-12-25T23:44:52.124Z,2.20
2018-12-25T23:47:35.441Z,2.20
2018-12-25T23:50:18.711Z,2.20
2018-12-25T23:53:01.940Z,2.20
2018-12-25T23:55:52.810Z,2.20
2018-12-25T23:58:30.263Z,2.20
